sensor_id;sensor_type;location;lat;lon;timestamp;P1;durP1;ratioP1;P2;durP2;ratioP2
31596;SDS011;18201;50.978;7.034;2022-12-16T00:00:03;115.18;;;62.70;;
31596;SDS011;18201;50.978;7.034;2022-12-16T00:00:36;114.57;;;63.53;;
31596;SDS011;18201;50.978;7.034;2022-12-16T00:01:07;119.00;;;62.95;;
31596;SDS011;18201;50.978;7.034;2022-12-16T00:01:42;116.25;;;62.45;;
31596;SDS011;18201;50.978;7.034;2022-12-16T00:02:13;112.30;;;63.28;;
31596;SDS011;18201;50.978;7.034;2022-12-16T00:02:44;121.00;;;64.38;;
31596;SDS011;18201;50.978;7.034;2022-12-16T00:03:16;115.38;;;61.58;;
31596;SDS011;18201;50.978;7.034;2022-12-16T00:03:47;112.88;;;63.65;;
31596;SDS011;18201;50.978;7.034;2022-12-16T00:04:19;117.72;;;63.20;;
31596;SDS011;18201;50.978;7.034;2022-12-16T00:04:51;115.57;;;61.20;;
31596;SDS011;18201;50.978;7.034;2022-12-16T00:05:22;118.45;;;63.40;;
31596;SDS011;18201;50.978;7.034;2022-12-16T00:05:53;115.80;;;65.78;;
31596;SDS011;18201;50.978;7.034;2022-12-16T00:06:26;116.60;;;62.80;;
31596;SDS011;18201;50.978;7.034;2022-12-16T00:06:59;117.88;;;64.18;;
31596;SDS011;18201;50.978;7.034;2022-12-16T00:07:31;127.45;;;63.38;;
31596;SDS011;18201;50.978;7.034;2022-12-16T00:08:02;115.13;;;62.35;;
31596;SDS011;18201;50.978;7.034;2022-12-16T00:08:34;126.03;;;65.65;;
31596;SDS011;18201;50.978;7.034;2022-12-16T00:09:07;115.70;;;62.42;;
31596;SDS011;18201;50.978;7.034;2022-12-16T00:09:38;121.00;;;63.50;;
31596;SDS011;18201;50.978;7.034;2022-12-16T00:10:09;114.43;;;64.20;;
31596;SDS011;18201;50.978;7.034;2022-12-16T00:10:41;110.53;;;62.25;;
31596;SDS011;18201;50.978;7.034;2022-12-16T00:11:24;115.43;;;62.45;;
31596;SDS011;18201;50.978;7.034;2022-12-16T00:11:56;121.13;;;61.47;;
31596;SDS011;18201;50.978;7.034;2022-12-16T00:12:30;115.05;;;64.28;;
31596;SDS011;18201;50.978;7.034;2022-12-16T00:13:01;114.00;;;62.95;;
31596;SDS011;18201;50.978;7.034;2022-12-16T00:13:33;119.57;;;64.05;;
31596;SDS011;18201;50.978;7.034;2022-12-16T00:14:05;105.35;;;59.45;;
31596;SDS011;18201;50.978;7.034;2022-12-16T00:14:37;112.68;;;62.72;;
31596;SDS011;18201;50.978;7.034;2022-12-16T00:15:08;115.97;;;62.38;;
31596;SDS011;18201;50.978;7.034;2022-12-16T00:15:39;110.07;;;63.15;;
31596;SDS011;18201;50.978;7.034;2022-12-16T00:16:12;111.28;;;61.22;;
31596;SDS011;18201;50.978;7.034;2022-12-16T00:16:46;105.65;;;56.80;;
31596;SDS011;18201;50.978;7.034;2022-12-16T00:17:17;110.90;;;61.50;;
31596;SDS011;18201;50.978;7.034;2022-12-16T00:17:49;107.60;;;60.90;;
31596;SDS011;18201;50.978;7.034;2022-12-16T00:18:19;113.53;;;61.72;;
31596;SDS011;18201;50.978;7.034;2022-12-16T00:18:51;114.72;;;61.92;;
31596;SDS011;18201;50.978;7.034;2022-12-16T00:19:22;115.32;;;64.40;;
31596;SDS011;18201;50.978;7.034;2022-12-16T00:19:53;109.88;;;57.90;;
31596;SDS011;18201;50.978;7.034;2022-12-16T00:20:24;113.60;;;60.28;;
31596;SDS011;18201;50.978;7.034;2022-12-16T00:20:56;106.35;;;59.10;;
31596;SDS011;18201;50.978;7.034;2022-12-16T00:21:27;109.22;;;59.47;;
31596;SDS011;18201;50.978;7.034;2022-12-16T00:21:58;108.88;;;60.88;;
31596;SDS011;18201;50.978;7.034;2022-12-16T00:22:30;101.22;;;58.55;;
31596;SDS011;18201;50.978;7.034;2022-12-16T00:23:04;111.88;;;61.50;;
31596;SDS011;18201;50.978;7.034;2022-12-16T00:23:38;107.97;;;58.97;;
31596;SDS011;18201;50.978;7.034;2022-12-16T00:24:11;105.13;;;55.35;;
31596;SDS011;18201;50.978;7.034;2022-12-16T00:24:41;106.90;;;56.75;;
31596;SDS011;18201;50.978;7.034;2022-12-16T00:25:12;106.93;;;58.40;;
31596;SDS011;18201;50.978;7.034;2022-12-16T00:25:44;107.18;;;58.80;;
31596;SDS011;18201;50.978;7.034;2022-12-16T00:26:16;103.97;;;57.08;;
31596;SDS011;18201;50.978;7.034;2022-12-16T00:26:47;105.03;;;58.33;;
31596;SDS011;18201;50.978;7.034;2022-12-16T00:27:19;109.70;;;58.88;;
31596;SDS011;18201;50.978;7.034;2022-12-16T00:41:50;99.85;;;49.83;;
31596;SDS011;18201;50.978;7.034;2022-12-16T00:42:22;114.55;;;54.45;;
31596;SDS011;18201;50.978;7.034;2022-12-16T00:42:53;102.45;;;52.63;;
31596;SDS011;18201;50.978;7.034;2022-12-16T00:50:27;94.95;;;48.53;;
31596;SDS011;18201;50.978;7.034;2022-12-16T00:51:00;102.28;;;51.10;;
31596;SDS011;18201;50.978;7.034;2022-12-16T00:51:31;111.07;;;54.72;;
31596;SDS011;18201;50.978;7.034;2022-12-16T00:52:02;103.50;;;53.78;;
31596;SDS011;18201;50.978;7.034;2022-12-16T00:52:34;106.40;;;58.00;;
31596;SDS011;18201;50.978;7.034;2022-12-16T00:53:05;100.35;;;55.17;;
31596;SDS011;18201;50.978;7.034;2022-12-16T00:53:36;103.00;;;55.00;;
31596;SDS011;18201;50.978;7.034;2022-12-16T00:54:07;105.78;;;56.30;;
31596;SDS011;18201;50.978;7.034;2022-12-16T00:54:39;101.05;;;57.47;;
31596;SDS011;18201;50.978;7.034;2022-12-16T00:55:10;106.18;;;57.00;;
31596;SDS011;18201;50.978;7.034;2022-12-16T00:55:41;114.43;;;60.28;;
31596;SDS011;18201;50.978;7.034;2022-12-16T00:56:12;109.45;;;59.78;;
31596;SDS011;18201;50.978;7.034;2022-12-16T00:56:44;105.00;;;58.95;;
31596;SDS011;18201;50.978;7.034;2022-12-16T00:57:17;101.18;;;58.45;;
31596;SDS011;18201;50.978;7.034;2022-12-16T00:57:47;113.28;;;60.72;;
31596;SDS011;18201;50.978;7.034;2022-12-16T00:58:19;104.40;;;56.50;;
31596;SDS011;18201;50.978;7.034;2022-12-16T01:22:53;101.72;;;48.30;;
31596;SDS011;18201;50.978;7.034;2022-12-16T01:23:26;107.60;;;50.55;;
31596;SDS011;18201;50.978;7.034;2022-12-16T01:23:57;100.60;;;50.38;;
31596;SDS011;18201;50.978;7.034;2022-12-16T01:24:28;99.22;;;51.47;;
31596;SDS011;18201;50.978;7.034;2022-12-16T01:25:00;99.70;;;53.92;;
31596;SDS011;18201;50.978;7.034;2022-12-16T01:25:31;102.15;;;54.38;;
31596;SDS011;18201;50.978;7.034;2022-12-16T01:26:02;105.38;;;55.35;;
31596;SDS011;18201;50.978;7.034;2022-12-16T01:26:35;102.90;;;56.13;;
31596;SDS011;18201;50.978;7.034;2022-12-16T01:27:08;103.30;;;56.95;;
31596;SDS011;18201;50.978;7.034;2022-12-16T01:27:39;103.53;;;55.35;;
31596;SDS011;18201;50.978;7.034;2022-12-16T01:28:11;103.40;;;56.88;;
31596;SDS011;18201;50.978;7.034;2022-12-16T01:28:42;107.07;;;56.05;;
31596;SDS011;18201;50.978;7.034;2022-12-16T01:29:13;97.75;;;52.63;;
31596;SDS011;18201;50.978;7.034;2022-12-16T02:26:07;94.07;;;43.67;;
31596;SDS011;18201;50.978;7.034;2022-12-16T02:26:54;94.03;;;45.42;;
31596;SDS011;18201;50.978;7.034;2022-12-16T03:45:00;96.97;;;47.30;;
31596;SDS011;18201;50.978;7.034;2022-12-16T06:15:02;99.38;;;46.83;;
31596;SDS011;18201;50.978;7.034;2022-12-16T06:15:52;111.63;;;48.95;;
31596;SDS011;18201;50.978;7.034;2022-12-16T06:16:41;93.22;;;48.67;;
31596;SDS011;18201;50.978;7.034;2022-12-16T06:17:27;105.22;;;49.33;;
31596;SDS011;18201;50.978;7.034;2022-12-16T06:18:16;108.18;;;49.80;;
31596;SDS011;18201;50.978;7.034;2022-12-16T06:19:05;94.75;;;48.33;;
31596;SDS011;18201;50.978;7.034;2022-12-16T06:19:55;101.38;;;49.95;;
31596;SDS011;18201;50.978;7.034;2022-12-16T06:20:44;95.22;;;48.58;;
31596;SDS011;18201;50.978;7.034;2022-12-16T06:21:33;98.30;;;48.05;;
31596;SDS011;18201;50.978;7.034;2022-12-16T06:22:22;101.20;;;48.92;;
31596;SDS011;18201;50.978;7.034;2022-12-16T06:23:12;96.30;;;49.08;;
31596;SDS011;18201;50.978;7.034;2022-12-16T06:24:01;99.45;;;49.47;;
31596;SDS011;18201;50.978;7.034;2022-12-16T07:55:02;115.32;;;48.05;;
31596;SDS011;18201;50.978;7.034;2022-12-16T07:55:51;136.55;;;54.03;;
31596;SDS011;18201;50.978;7.034;2022-12-16T07:56:41;131.90;;;54.67;;
31596;SDS011;18201;50.978;7.034;2022-12-16T07:57:30;133.00;;;56.08;;
31596;SDS011;18201;50.978;7.034;2022-12-16T07:58:19;135.27;;;56.92;;
31596;SDS011;18201;50.978;7.034;2022-12-16T07:59:09;131.80;;;58.17;;
31596;SDS011;18201;50.978;7.034;2022-12-16T07:59:58;128.45;;;55.90;;
31596;SDS011;18201;50.978;7.034;2022-12-16T08:00:48;131.50;;;57.10;;
31596;SDS011;18201;50.978;7.034;2022-12-16T08:01:38;101.40;;;42.58;;
31596;SDS011;18201;50.978;7.034;2022-12-16T08:02:27;140.23;;;59.90;;
31596;SDS011;18201;50.978;7.034;2022-12-16T08:05:25;134.05;;;52.40;;
31596;SDS011;18201;50.978;7.034;2022-12-16T08:06:15;131.98;;;55.83;;
31596;SDS011;18201;50.978;7.034;2022-12-16T08:07:04;137.15;;;56.97;;
31596;SDS011;18201;50.978;7.034;2022-12-16T09:24:26;86.97;;;43.90;;
31596;SDS011;18201;50.978;7.034;2022-12-16T09:30:33;93.13;;;42.80;;
31596;SDS011;18201;50.978;7.034;2022-12-16T09:31:23;97.75;;;46.13;;
31596;SDS011;18201;50.978;7.034;2022-12-16T09:32:12;95.93;;;47.95;;
31596;SDS011;18201;50.978;7.034;2022-12-16T09:33:01;90.07;;;47.67;;
31596;SDS011;18201;50.978;7.034;2022-12-16T09:33:50;86.53;;;44.92;;
31596;SDS011;18201;50.978;7.034;2022-12-16T09:34:40;88.55;;;45.42;;
31596;SDS011;18201;50.978;7.034;2022-12-16T09:35:29;91.68;;;46.20;;
31596;SDS011;18201;50.978;7.034;2022-12-16T09:36:19;90.20;;;45.65;;
31596;SDS011;18201;50.978;7.034;2022-12-16T09:37:20;88.25;;;45.22;;
31596;SDS011;18201;50.978;7.034;2022-12-16T09:38:10;88.85;;;47.40;;
31596;SDS011;18201;50.978;7.034;2022-12-16T09:39:01;87.75;;;46.63;;
31596;SDS011;18201;50.978;7.034;2022-12-16T09:39:50;89.63;;;47.00;;
31596;SDS011;18201;50.978;7.034;2022-12-16T09:40:40;88.40;;;46.40;;
31596;SDS011;18201;50.978;7.034;2022-12-16T09:41:36;87.20;;;46.15;;
31596;SDS011;18201;50.978;7.034;2022-12-16T09:42:32;89.00;;;44.63;;
31596;SDS011;18201;50.978;7.034;2022-12-16T09:43:35;92.95;;;45.40;;
31596;SDS011;18201;50.978;7.034;2022-12-16T09:44:37;101.75;;;49.67;;
31596;SDS011;18201;50.978;7.034;2022-12-16T09:45:38;111.75;;;58.15;;
31596;SDS011;18201;50.978;7.034;2022-12-16T09:46:38;117.32;;;58.75;;
31596;SDS011;18201;50.978;7.034;2022-12-16T09:48:28;106.45;;;53.38;;
31596;SDS011;18201;50.978;7.034;2022-12-16T09:49:30;98.88;;;50.50;;
31596;SDS011;18201;50.978;7.034;2022-12-16T09:50:30;100.13;;;48.03;;
31596;SDS011;18201;50.978;7.034;2022-12-16T09:51:19;102.07;;;55.00;;
31596;SDS011;18201;50.978;7.034;2022-12-16T09:53:59;93.88;;;47.88;;
31596;SDS011;18201;50.978;7.034;2022-12-16T09:54:51;93.03;;;48.67;;
31596;SDS011;18201;50.978;7.034;2022-12-16T09:55:41;89.13;;;49.88;;
31596;SDS011;18201;50.978;7.034;2022-12-16T09:56:33;87.53;;;46.95;;
31596;SDS011;18201;50.978;7.034;2022-12-16T09:57:23;92.47;;;48.63;;
31596;SDS011;18201;50.978;7.034;2022-12-16T09:58:14;89.65;;;46.20;;
31596;SDS011;18201;50.978;7.034;2022-12-16T09:59:06;92.70;;;47.70;;
31596;SDS011;18201;50.978;7.034;2022-12-16T10:00:02;86.93;;;45.75;;
31596;SDS011;18201;50.978;7.034;2022-12-16T10:00:53;89.88;;;46.72;;
31596;SDS011;18201;50.978;7.034;2022-12-16T10:01:43;83.55;;;46.85;;
31596;SDS011;18201;50.978;7.034;2022-12-16T10:02:32;80.22;;;43.35;;
31596;SDS011;18201;50.978;7.034;2022-12-16T10:03:22;101.63;;;50.10;;
31596;SDS011;18201;50.978;7.034;2022-12-16T10:04:15;92.78;;;48.05;;
31596;SDS011;18201;50.978;7.034;2022-12-16T10:05:59;105.50;;;53.90;;
31596;SDS011;18201;50.978;7.034;2022-12-16T10:06:57;97.88;;;50.42;;
31596;SDS011;18201;50.978;7.034;2022-12-16T10:07:52;91.20;;;47.88;;
31596;SDS011;18201;50.978;7.034;2022-12-16T10:09:43;85.40;;;45.20;;
31596;SDS011;18201;50.978;7.034;2022-12-16T10:10:43;93.47;;;46.10;;
31596;SDS011;18201;50.978;7.034;2022-12-16T10:11:50;96.85;;;47.58;;
31596;SDS011;18201;50.978;7.034;2022-12-16T10:12:47;91.10;;;47.58;;
31596;SDS011;18201;50.978;7.034;2022-12-16T10:13:45;98.43;;;48.88;;
31596;SDS011;18201;50.978;7.034;2022-12-16T10:14:44;95.63;;;47.47;;
31596;SDS011;18201;50.978;7.034;2022-12-16T10:15:42;105.10;;;50.20;;
31596;SDS011;18201;50.978;7.034;2022-12-16T10:16:39;101.57;;;52.75;;
31596;SDS011;18201;50.978;7.034;2022-12-16T10:17:33;101.57;;;60.17;;
31596;SDS011;18201;50.978;7.034;2022-12-16T10:18:33;101.10;;;53.97;;
31596;SDS011;18201;50.978;7.034;2022-12-16T10:19:40;100.72;;;50.22;;
31596;SDS011;18201;50.978;7.034;2022-12-16T10:20:37;102.90;;;49.47;;
31596;SDS011;18201;50.978;7.034;2022-12-16T10:21:33;95.50;;;48.13;;
31596;SDS011;18201;50.978;7.034;2022-12-16T10:22:28;101.35;;;49.90;;
31596;SDS011;18201;50.978;7.034;2022-12-16T10:23:24;101.53;;;49.97;;
31596;SDS011;18201;50.978;7.034;2022-12-16T10:24:26;98.93;;;51.40;;
31596;SDS011;18201;50.978;7.034;2022-12-16T10:25:27;108.82;;;51.83;;
31596;SDS011;18201;50.978;7.034;2022-12-16T10:26:22;97.47;;;52.30;;
31596;SDS011;18201;50.978;7.034;2022-12-16T10:27:16;94.78;;;48.60;;
31596;SDS011;18201;50.978;7.034;2022-12-16T10:28:13;97.72;;;51.55;;
31596;SDS011;18201;50.978;7.034;2022-12-16T10:29:05;96.97;;;49.47;;
31596;SDS011;18201;50.978;7.034;2022-12-16T10:30:02;92.75;;;49.38;;
31596;SDS011;18201;50.978;7.034;2022-12-16T10:30:59;91.82;;;46.83;;
31596;SDS011;18201;50.978;7.034;2022-12-16T10:31:49;97.50;;;49.60;;
31596;SDS011;18201;50.978;7.034;2022-12-16T10:32:40;100.07;;;50.28;;
31596;SDS011;18201;50.978;7.034;2022-12-16T10:33:31;102.43;;;50.90;;
31596;SDS011;18201;50.978;7.034;2022-12-16T10:34:23;96.13;;;51.50;;
31596;SDS011;18201;50.978;7.034;2022-12-16T10:35:18;96.38;;;51.45;;
31596;SDS011;18201;50.978;7.034;2022-12-16T10:36:10;101.50;;;51.53;;
31596;SDS011;18201;50.978;7.034;2022-12-16T10:37:03;100.18;;;50.63;;
31596;SDS011;18201;50.978;7.034;2022-12-16T10:37:52;98.18;;;50.15;;
31596;SDS011;18201;50.978;7.034;2022-12-16T10:38:43;99.38;;;52.80;;
31596;SDS011;18201;50.978;7.034;2022-12-16T10:39:36;91.60;;;50.60;;
31596;SDS011;18201;50.978;7.034;2022-12-16T10:40:30;94.13;;;48.67;;
31596;SDS011;18201;50.978;7.034;2022-12-16T10:41:23;100.32;;;52.05;;
31596;SDS011;18201;50.978;7.034;2022-12-16T10:42:17;100.45;;;49.35;;
31596;SDS011;18201;50.978;7.034;2022-12-16T10:43:11;90.60;;;48.05;;
31596;SDS011;18201;50.978;7.034;2022-12-16T10:44:04;89.13;;;49.15;;
31596;SDS011;18201;50.978;7.034;2022-12-16T10:45:02;96.07;;;50.20;;
31596;SDS011;18201;50.978;7.034;2022-12-16T10:45:52;92.70;;;48.83;;
31596;SDS011;18201;50.978;7.034;2022-12-16T10:46:44;101.07;;;51.35;;
31596;SDS011;18201;50.978;7.034;2022-12-16T10:47:33;98.00;;;50.25;;
31596;SDS011;18201;50.978;7.034;2022-12-16T10:48:25;96.45;;;53.70;;
31596;SDS011;18201;50.978;7.034;2022-12-16T10:49:16;104.97;;;52.63;;
31596;SDS011;18201;50.978;7.034;2022-12-16T10:50:10;102.25;;;56.85;;
31596;SDS011;18201;50.978;7.034;2022-12-16T10:51:01;100.30;;;51.38;;
31596;SDS011;18201;50.978;7.034;2022-12-16T10:51:58;99.10;;;52.17;;
31596;SDS011;18201;50.978;7.034;2022-12-16T10:52:50;70.20;;;39.42;;
31596;SDS011;18201;50.978;7.034;2022-12-16T10:53:44;102.10;;;48.63;;
31596;SDS011;18201;50.978;7.034;2022-12-16T10:54:38;114.30;;;53.22;;
31596;SDS011;18201;50.978;7.034;2022-12-16T10:55:33;94.03;;;51.17;;
31596;SDS011;18201;50.978;7.034;2022-12-16T10:56:40;104.00;;;50.78;;
31596;SDS011;18201;50.978;7.034;2022-12-16T10:57:44;101.18;;;50.75;;
31596;SDS011;18201;50.978;7.034;2022-12-16T10:58:42;109.68;;;50.75;;
31596;SDS011;18201;50.978;7.034;2022-12-16T10:59:38;104.85;;;50.40;;
31596;SDS011;18201;50.978;7.034;2022-12-16T11:00:37;93.70;;;50.05;;
31596;SDS011;18201;50.978;7.034;2022-12-16T11:01:27;99.05;;;47.80;;
31596;SDS011;18201;50.978;7.034;2022-12-16T11:02:17;96.95;;;48.92;;
31596;SDS011;18201;50.978;7.034;2022-12-16T11:03:18;101.60;;;50.53;;
31596;SDS011;18201;50.978;7.034;2022-12-16T11:04:29;95.90;;;51.15;;
31596;SDS011;18201;50.978;7.034;2022-12-16T11:05:30;99.57;;;50.85;;
31596;SDS011;18201;50.978;7.034;2022-12-16T11:06:21;103.82;;;52.67;;
31596;SDS011;18201;50.978;7.034;2022-12-16T11:07:26;100.78;;;47.95;;
31596;SDS011;18201;50.978;7.034;2022-12-16T11:08:23;101.63;;;49.33;;
31596;SDS011;18201;50.978;7.034;2022-12-16T11:09:17;91.65;;;48.55;;
31596;SDS011;18201;50.978;7.034;2022-12-16T11:10:22;93.13;;;49.38;;
31596;SDS011;18201;50.978;7.034;2022-12-16T11:11:21;96.55;;;48.00;;
31596;SDS011;18201;50.978;7.034;2022-12-16T11:12:19;91.20;;;47.20;;
31596;SDS011;18201;50.978;7.034;2022-12-16T11:13:11;101.13;;;50.53;;
31596;SDS011;18201;50.978;7.034;2022-12-16T11:14:22;91.55;;;47.33;;
31596;SDS011;18201;50.978;7.034;2022-12-16T11:15:20;97.70;;;49.00;;
31596;SDS011;18201;50.978;7.034;2022-12-16T11:16:13;101.75;;;48.72;;
31596;SDS011;18201;50.978;7.034;2022-12-16T11:17:10;99.47;;;49.97;;
31596;SDS011;18201;50.978;7.034;2022-12-16T11:18:06;95.43;;;47.60;;
31596;SDS011;18201;50.978;7.034;2022-12-16T11:18:58;91.53;;;48.17;;
31596;SDS011;18201;50.978;7.034;2022-12-16T11:19:47;100.65;;;48.10;;
31596;SDS011;18201;50.978;7.034;2022-12-16T11:21:07;90.40;;;45.28;;
31596;SDS011;18201;50.978;7.034;2022-12-16T11:22:04;81.90;;;44.97;;
31596;SDS011;18201;50.978;7.034;2022-12-16T11:23:05;76.65;;;41.28;;
31596;SDS011;18201;50.978;7.034;2022-12-16T11:24:06;69.25;;;39.80;;
31596;SDS011;18201;50.978;7.034;2022-12-16T11:25:04;73.43;;;40.83;;
31596;SDS011;18201;50.978;7.034;2022-12-16T11:26:05;80.60;;;43.40;;
31596;SDS011;18201;50.978;7.034;2022-12-16T11:26:58;72.15;;;41.72;;
31596;SDS011;18201;50.978;7.034;2022-12-16T11:27:48;64.82;;;38.45;;
31596;SDS011;18201;50.978;7.034;2022-12-16T11:28:38;64.07;;;37.17;;
31596;SDS011;18201;50.978;7.034;2022-12-16T11:29:27;46.28;;;26.80;;
31596;SDS011;18201;50.978;7.034;2022-12-16T11:30:18;72.38;;;40.17;;
31596;SDS011;18201;50.978;7.034;2022-12-16T11:31:10;74.35;;;38.85;;
31596;SDS011;18201;50.978;7.034;2022-12-16T11:32:03;69.22;;;39.20;;
31596;SDS011;18201;50.978;7.034;2022-12-16T11:33:08;74.20;;;39.72;;
31596;SDS011;18201;50.978;7.034;2022-12-16T11:34:01;61.97;;;37.58;;
31596;SDS011;18201;50.978;7.034;2022-12-16T11:34:53;62.17;;;38.05;;
31596;SDS011;18201;50.978;7.034;2022-12-16T11:35:47;63.58;;;37.20;;
31596;SDS011;18201;50.978;7.034;2022-12-16T11:36:40;66.40;;;37.42;;
31596;SDS011;18201;50.978;7.034;2022-12-16T11:37:27;62.88;;;38.05;;
31596;SDS011;18201;50.978;7.034;2022-12-16T11:38:20;58.97;;;36.55;;
31596;SDS011;18201;50.978;7.034;2022-12-16T11:39:13;66.60;;;37.75;;
31596;SDS011;18201;50.978;7.034;2022-12-16T11:40:07;57.97;;;37.65;;
31596;SDS011;18201;50.978;7.034;2022-12-16T11:41:01;64.45;;;38.08;;
31596;SDS011;18201;50.978;7.034;2022-12-16T11:41:52;61.25;;;37.58;;
31596;SDS011;18201;50.978;7.034;2022-12-16T11:42:44;66.38;;;38.05;;
31596;SDS011;18201;50.978;7.034;2022-12-16T11:43:30;60.28;;;38.47;;
31596;SDS011;18201;50.978;7.034;2022-12-16T11:44:33;56.03;;;37.08;;
31596;SDS011;18201;50.978;7.034;2022-12-16T11:45:26;60.17;;;36.22;;
31596;SDS011;18201;50.978;7.034;2022-12-16T11:46:19;56.47;;;36.72;;
31596;SDS011;18201;50.978;7.034;2022-12-16T11:47:15;56.65;;;37.38;;
31596;SDS011;18201;50.978;7.034;2022-12-16T11:48:11;59.45;;;37.95;;
31596;SDS011;18201;50.978;7.034;2022-12-16T11:49:13;59.25;;;36.83;;
31596;SDS011;18201;50.978;7.034;2022-12-16T11:50:10;61.43;;;37.57;;
31596;SDS011;18201;50.978;7.034;2022-12-16T11:51:03;58.20;;;34.70;;
31596;SDS011;18201;50.978;7.034;2022-12-16T11:51:56;56.03;;;36.92;;
31596;SDS011;18201;50.978;7.034;2022-12-16T11:52:50;55.25;;;37.38;;
31596;SDS011;18201;50.978;7.034;2022-12-16T11:53:44;54.20;;;36.38;;
31596;SDS011;18201;50.978;7.034;2022-12-16T11:54:36;61.60;;;37.20;;
31596;SDS011;18201;50.978;7.034;2022-12-16T11:55:32;64.68;;;39.03;;
31596;SDS011;18201;50.978;7.034;2022-12-16T11:56:23;54.80;;;37.92;;
31596;SDS011;18201;50.978;7.034;2022-12-16T11:57:16;57.88;;;37.75;;
31596;SDS011;18201;50.978;7.034;2022-12-16T11:58:12;60.17;;;36.47;;
31596;SDS011;18201;50.978;7.034;2022-12-16T11:59:08;56.08;;;35.10;;
31596;SDS011;18201;50.978;7.034;2022-12-16T12:00:03;55.03;;;35.38;;
31596;SDS011;18201;50.978;7.034;2022-12-16T12:00:57;54.97;;;36.33;;
31596;SDS011;18201;50.978;7.034;2022-12-16T12:01:54;50.67;;;35.72;;
31596;SDS011;18201;50.978;7.034;2022-12-16T12:02:47;59.00;;;35.30;;
31596;SDS011;18201;50.978;7.034;2022-12-16T12:03:44;68.18;;;46.58;;
31596;SDS011;18201;50.978;7.034;2022-12-16T12:04:34;67.55;;;46.83;;
31596;SDS011;18201;50.978;7.034;2022-12-16T12:05:25;104.40;;;70.38;;
31596;SDS011;18201;50.978;7.034;2022-12-16T12:06:18;82.97;;;56.67;;
31596;SDS011;18201;50.978;7.034;2022-12-16T12:07:21;48.75;;;34.95;;
31596;SDS011;18201;50.978;7.034;2022-12-16T12:08:20;55.95;;;36.55;;
31596;SDS011;18201;50.978;7.034;2022-12-16T12:09:19;49.28;;;35.45;;
31596;SDS011;18201;50.978;7.034;2022-12-16T12:10:13;56.67;;;37.42;;
31596;SDS011;18201;50.978;7.034;2022-12-16T12:11:22;52.72;;;35.25;;
31596;SDS011;18201;50.978;7.034;2022-12-16T12:12:18;58.10;;;36.03;;
31596;SDS011;18201;50.978;7.034;2022-12-16T12:13:15;54.63;;;34.78;;
31596;SDS011;18201;50.978;7.034;2022-12-16T12:14:18;51.40;;;35.38;;
31596;SDS011;18201;50.978;7.034;2022-12-16T12:15:15;55.90;;;37.70;;
31596;SDS011;18201;50.978;7.034;2022-12-16T12:16:11;54.10;;;34.78;;
31596;SDS011;18201;50.978;7.034;2022-12-16T12:17:06;51.08;;;33.85;;
31596;SDS011;18201;50.978;7.034;2022-12-16T12:18:09;55.30;;;35.45;;
31596;SDS011;18201;50.978;7.034;2022-12-16T12:19:09;59.75;;;35.50;;
31596;SDS011;18201;50.978;7.034;2022-12-16T12:20:08;58.22;;;38.08;;
31596;SDS011;18201;50.978;7.034;2022-12-16T12:21:21;58.67;;;37.30;;
31596;SDS011;18201;50.978;7.034;2022-12-16T12:23:04;53.45;;;36.97;;
31596;SDS011;18201;50.978;7.034;2022-12-16T12:23:56;62.58;;;36.65;;
31596;SDS011;18201;50.978;7.034;2022-12-16T12:24:52;56.33;;;37.75;;
31596;SDS011;18201;50.978;7.034;2022-12-16T12:25:51;62.38;;;37.40;;
31596;SDS011;18201;50.978;7.034;2022-12-16T12:26:52;57.22;;;37.67;;
31596;SDS011;18201;50.978;7.034;2022-12-16T12:27:49;59.53;;;37.92;;
31596;SDS011;18201;50.978;7.034;2022-12-16T12:28:49;54.95;;;37.03;;
31596;SDS011;18201;50.978;7.034;2022-12-16T12:29:50;57.40;;;37.88;;
31596;SDS011;18201;50.978;7.034;2022-12-16T12:30:52;57.40;;;37.72;;
31596;SDS011;18201;50.978;7.034;2022-12-16T12:31:48;55.05;;;36.55;;
31596;SDS011;18201;50.978;7.034;2022-12-16T12:32:48;57.42;;;38.72;;
31596;SDS011;18201;50.978;7.034;2022-12-16T12:33:49;59.33;;;38.65;;
31596;SDS011;18201;50.978;7.034;2022-12-16T12:34:49;55.40;;;37.70;;
31596;SDS011;18201;50.978;7.034;2022-12-16T12:35:47;54.88;;;37.80;;
31596;SDS011;18201;50.978;7.034;2022-12-16T12:36:48;55.60;;;39.65;;
31596;SDS011;18201;50.978;7.034;2022-12-16T12:37:44;53.58;;;39.35;;
31596;SDS011;18201;50.978;7.034;2022-12-16T12:38:38;57.90;;;38.75;;
31596;SDS011;18201;50.978;7.034;2022-12-16T12:39:38;59.47;;;38.58;;
31596;SDS011;18201;50.978;7.034;2022-12-16T12:40:37;58.55;;;39.10;;
31596;SDS011;18201;50.978;7.034;2022-12-16T12:41:38;60.75;;;40.03;;
31596;SDS011;18201;50.978;7.034;2022-12-16T12:42:39;56.25;;;36.67;;
31596;SDS011;18201;50.978;7.034;2022-12-16T12:43:35;57.30;;;39.42;;
31596;SDS011;18201;50.978;7.034;2022-12-16T12:44:35;61.63;;;39.28;;
31596;SDS011;18201;50.978;7.034;2022-12-16T12:45:42;56.22;;;39.60;;
31596;SDS011;18201;50.978;7.034;2022-12-16T12:46:38;59.83;;;40.65;;
31596;SDS011;18201;50.978;7.034;2022-12-16T12:47:32;56.40;;;38.35;;
31596;SDS011;18201;50.978;7.034;2022-12-16T12:48:33;58.22;;;40.47;;
31596;SDS011;18201;50.978;7.034;2022-12-16T12:49:31;58.58;;;38.75;;
31596;SDS011;18201;50.978;7.034;2022-12-16T12:50:27;58.03;;;39.47;;
31596;SDS011;18201;50.978;7.034;2022-12-16T12:51:24;52.42;;;36.88;;
31596;SDS011;18201;50.978;7.034;2022-12-16T12:52:21;58.10;;;40.17;;
31596;SDS011;18201;50.978;7.034;2022-12-16T12:53:27;62.25;;;41.47;;
31596;SDS011;18201;50.978;7.034;2022-12-16T12:54:24;62.17;;;41.65;;
31596;SDS011;18201;50.978;7.034;2022-12-16T12:55:22;63.92;;;43.17;;
31596;SDS011;18201;50.978;7.034;2022-12-16T12:56:24;66.80;;;43.63;;
31596;SDS011;18201;50.978;7.034;2022-12-16T12:57:22;59.28;;;40.63;;
31596;SDS011;18201;50.978;7.034;2022-12-16T12:58:15;59.53;;;41.10;;
31596;SDS011;18201;50.978;7.034;2022-12-16T13:00:02;63.83;;;43.15;;
31596;SDS011;18201;50.978;7.034;2022-12-16T13:00:54;63.58;;;41.45;;
31596;SDS011;18201;50.978;7.034;2022-12-16T13:01:45;57.40;;;39.42;;
31596;SDS011;18201;50.978;7.034;2022-12-16T13:02:41;63.45;;;41.53;;
31596;SDS011;18201;50.978;7.034;2022-12-16T13:03:36;60.53;;;40.38;;
31596;SDS011;18201;50.978;7.034;2022-12-16T13:04:31;59.83;;;39.70;;
31596;SDS011;18201;50.978;7.034;2022-12-16T13:05:21;66.05;;;43.95;;
31596;SDS011;18201;50.978;7.034;2022-12-16T13:06:13;61.53;;;42.65;;
31596;SDS011;18201;50.978;7.034;2022-12-16T13:07:52;68.47;;;44.75;;
31596;SDS011;18201;50.978;7.034;2022-12-16T13:08:57;61.80;;;40.50;;
31596;SDS011;18201;50.978;7.034;2022-12-16T13:09:58;66.78;;;43.05;;
31596;SDS011;18201;50.978;7.034;2022-12-16T13:11:10;66.47;;;43.17;;
31596;SDS011;18201;50.978;7.034;2022-12-16T13:13:19;67.95;;;44.63;;
31596;SDS011;18201;50.978;7.034;2022-12-16T13:15:51;72.15;;;46.33;;
31596;SDS011;18201;50.978;7.034;2022-12-16T13:20:35;78.85;;;45.70;;
31596;SDS011;18201;50.978;7.034;2022-12-16T13:21:41;74.10;;;45.55;;
31596;SDS011;18201;50.978;7.034;2022-12-16T13:22:31;72.57;;;45.35;;
31596;SDS011;18201;50.978;7.034;2022-12-16T13:23:27;76.15;;;45.45;;